Terminal Aerodrome Forecast
Issued by NWS

Home | Current Version | Previous Version | Text Only | Print | Product List | Glossary On
Versions: 1 2 3 4 5 6 7 8 9 10 11 12 13 14 15 16
000
FTUS46 KEKA 060535
TAFUKI
TAF
KUKI 060535Z 0606/0706 02006KT P6SM FEW250
     FM061700 35008KT P6SM FEW250
     FM062100 32011G16KT P6SM SKC=

USA.gov is the U.S. government's official web portal to all federal, state and local government web resources and services.